Time;durP1;ratioP1;P1;durP2;ratioP2;P2;SDS_P1;SDS_P2;PMS_P1;PMS_P2;Temp;Humidity;BMP_temperature;BMP_pressure;BME280_temperature;BME280_humidity;BME280_pressure;Samples;Min_cycle;Max_cycle;Signal;HPM_P1;HPM_P2
2023/12/17 00:01:42;;;;;;;14.3;7.2;;;;;;;0.7;89.9668;959.0433;;;;
2023/12/17 00:04:28;;;;;;;11.8;6.3;;;;;;;0.73;89.91602;958.9338;;;;
2023/12/17 00:07:04;;;;;;;11.1;6.6;;;;;;;0.79;89.39258;958.9805;;;;
2023/12/17 00:09:36;;;;;;;13;7.4;;;;;;;0.77;89.37891;958.9281;;;;
2023/12/17 00:12:09;;;;;;;8.8;5.4;;;;;;;0.74;89.32715;958.7548;;;;
2023/12/17 00:14:49;;;;;;;12.2;5.4;;;;;;;0.5;90.40332;958.8734;;;;
2023/12/17 00:17:21;;;;;;;7.7;4.4;;;;;;;0.45;90.71582;958.7795;;;;
2023/12/17 00:20:08;;;;;;;7.5;3.6;;;;;;;0.52;90.69727;958.6842;;;;
2023/12/17 00:22:34;;;;;;;6.5;4;;;;;;;0.57;90.70898;958.7023;;;;
2023/12/17 00:25:06;;;;;;;8;4.8;;;;;;;0.62;90.75391;958.6969;;;;
2023/12/17 00:27:32;;;;;;;7.2;4.6;;;;;;;0.7;90.30078;958.625;;;;
2023/12/17 00:29:57;;;;;;;7.2;4.7;;;;;;;0.72;90.18262;958.541;;;;
2023/12/17 00:32:22;;;;;;;9.6;6.1;;;;;;;0.7;90.33496;958.5992;;;;
2023/12/17 00:34:49;;;;;;;11.1;5.8;;;;;;;0.83;89.44629;958.6322;;;;
2023/12/17 00:37:14;;;;;;;8.1;5.9;;;;;;;0.76;89.79004;958.5639;;;;
2023/12/17 00:39:40;;;;;;;7.9;5.1;;;;;;;0.8;89.44043;958.4543;;;;
2023/12/17 00:42:06;;;;;;;8.3;4.3;;;;;;;0.75;89.45313;958.4994;;;;
2023/12/17 00:44:31;;;;;;;6.3;3.9;;;;;;;0.54;90.56738;958.4487;;;;
2023/12/17 00:47:02;;;;;;;6.2;4.3;;;;;;;0.6;90.53613;958.5648;;;;
2023/12/17 00:49:27;;;;;;;5.6;3.3;;;;;;;0.72;89.92578;958.4875;;;;
2023/12/17 00:51:52;;;;;;;5.4;3.5;;;;;;;0.79;89.75098;958.4791;;;;
2023/12/17 00:54:22;;;;;;;5.9;3.1;;;;;;;0.68;90.17285;958.4295;;;;
2023/12/17 00:56:48;;;;;;;3.9;2.6;;;;;;;0.85;89.56348;958.3973;;;;
2023/12/17 00:59:15;;;;;;;4.9;3.2;;;;;;;1.07;88.39258;958.468;;;;
2023/12/17 01:01:40;;;;;;;5.3;3.1;;;;;;;1.07;88.12402;958.4811;;;;
2023/12/17 01:04:07;;;;;;;7.8;6;;;;;;;0.76;89.08691;958.5084;;;;
2023/12/17 01:06:32;;;;;;;7.1;4.7;;;;;;;0.69;89.60742;958.5692;;;;
2023/12/17 01:08:59;;;;;;;7.6;3.1;;;;;;;0.79;89.04785;958.5397;;;;
2023/12/17 01:11:25;;;;;;;3.3;2.7;;;;;;;0.92;88.8623;958.4485;;;;
2023/12/17 01:13:52;;;;;;;2.5;1.8;;;;;;;0.93;88.91992;958.4059;;;;
2023/12/17 01:16:17;;;;;;;2.1;1.9;;;;;;;1.08;88.60645;958.3795;;;;
2023/12/17 01:18:46;;;;;;;2.6;2.4;;;;;;;1.05;88.35742;958.5237;;;;
2023/12/17 01:21:11;;;;;;;2.2;1.8;;;;;;;1;88.4668;958.5417;;;;
2023/12/17 01:23:40;;;;;;;3.1;1.8;;;;;;;1.07;88.16895;958.5036;;;;
2023/12/17 01:26:05;;;;;;;2.5;1.8;;;;;;;1.02;88.41406;958.6011;;;;
2023/12/17 01:28:31;;;;;;;3.8;2.6;;;;;;;1.08;87.79102;958.597;;;;
2023/12/17 01:30:59;;;;;;;2.4;1.9;;;;;;;1.03;88.15039;958.7012;;;;
2023/12/17 01:33:25;;;;;;;3.9;2.3;;;;;;;1.11;87.74121;958.6981;;;;
2023/12/17 01:35:49;;;;;;;6.9;3.5;;;;;;;1.02;87.7002;958.7078;;;;
2023/12/17 01:38:21;;;;;;;3.7;2.6;;;;;;;0.96;88.07715;958.7252;;;;
2023/12/17 01:40:46;;;;;;;3.9;2.2;;;;;;;0.94;88.26367;958.755;;;;
2023/12/17 01:43:15;;;;;;;5.2;2.7;;;;;;;1.07;87.50977;958.8033;;;;
2023/12/17 01:45:44;;;;;;;4.5;3.2;;;;;;;0.92;87.82422;958.7883;;;;
2023/12/17 01:48:09;;;;;;;4;2.9;;;;;;;0.87;88.22852;958.7477;;;;
2023/12/17 01:50:36;;;;;;;4.8;3.2;;;;;;;0.75;88.80664;958.7478;;;;
2023/12/17 01:53:01;;;;;;;5.7;3.3;;;;;;;0.89;88.2207;958.7619;;;;
2023/12/17 01:55:32;;;;;;;6.3;3.5;;;;;;;0.7;88.87305;958.6705;;;;
2023/12/17 01:58:00;;;;;;;5.3;3.6;;;;;;;0.62;89.02539;958.7921;;;;
2023/12/17 02:00:25;;;;;;;6.5;3.7;;;;;;;0.62;88.96777;958.8408;;;;
2023/12/17 02:02:50;;;;;;;6;4;;;;;;;0.44;90.08008;958.9019;;;;
2023/12/17 02:05:20;;;;;;;4.6;3.1;;;;;;;0.43;90.29004;959.0385;;;;
2023/12/17 02:07:45;;;;;;;5.3;3.2;;;;;;;0.69;89.6748;959.0538;;;;
2023/12/17 02:10:14;;;;;;;7.4;3.7;;;;;;;0.78;88.99023;959.0276;;;;
2023/12/17 02:12:42;;;;;;;6;3.8;;;;;;;0.73;88.93457;959.1878;;;;
2023/12/17 02:15:14;;;;;;;4.5;3.4;;;;;;;0.82;88.59668;959.1683;;;;
2023/12/17 02:17:39;;;;;;;5.8;3.3;;;;;;;0.66;89.02148;959.2128;;;;
2023/12/17 02:20:11;;;;;;;4.9;3;;;;;;;0.56;89.39063;959.2399;;;;
2023/12/17 02:22:42;;;;;;;6;4.1;;;;;;;0.56;89.50293;959.2668;;;;
2023/12/17 02:25:14;;;;;;;6.2;4;;;;;;;0.68;89.02539;959.2406;;;;
2023/12/17 02:27:43;;;;;;;11.4;4.8;;;;;;;0.45;89.64453;959.1531;;;;
2023/12/17 02:30:14;;;;;;;8;3.6;;;;;;;0.53;89.61523;959.2589;;;;
2023/12/17 02:32:43;;;;;;;5;2.9;;;;;;;0.61;89.05469;959.1387;;;;
2023/12/17 02:35:08;;;;;;;4.2;2.5;;;;;;;0.53;89.37207;959.1863;;;;
2023/12/17 02:37:37;;;;;;;5.3;2.8;;;;;;;0.57;89.25879;959.1711;;;;
2023/12/17 02:40:12;;;;;;;3.5;2.8;;;;;;;0.61;89.07715;959.1256;;;;
2023/12/17 02:42:39;;;;;;;3.2;2.5;;;;;;;0.59;89.0957;959.1431;;;;
2023/12/17 02:45:04;;;;;;;4.2;3;;;;;;;0.45;89.58887;959.1995;;;;
2023/12/17 02:47:42;;;;;;;3.8;3.4;;;;;;;0.5;89.51172;959.0641;;;;
2023/12/17 02:50:09;;;;;;;4;3;;;;;;;0.45;89.91211;959.1525;;;;
2023/12/17 02:52:44;;;;;;;4.2;2.6;;;;;;;0.45;89.56641;959.0825;;;;
2023/12/17 02:55:15;;;;;;;4.1;2.8;;;;;;;0.48;89.61914;959.1731;;;;
2023/12/17 02:57:41;;;;;;;3.8;2.5;;;;;;;0.37;90.04004;959.1806;;;;
2023/12/17 03:00:21;;;;;;;4.1;2.7;;;;;;;0.24;90.62598;959.2481;;;;
2023/12/17 03:02:55;;;;;;;3.8;2.3;;;;;;;0.15;90.99707;959.3201;;;;
2023/12/17 03:05:27;;;;;;;3.7;2.3;;;;;;;0.2;90.97559;959.3591;;;;
2023/12/17 03:07:55;;;;;;;2.8;2.2;;;;;;;0.25;91.32129;959.4113;;;;
2023/12/17 03:10:23;;;;;;;4;2.5;;;;;;;0.26;90.92188;959.3605;;;;
2023/12/17 03:12:56;;;;;;;9;4.5;;;;;;;0.32;90.66602;959.3697;;;;
2023/12/17 03:15:26;;;;;;;11.6;4.8;;;;;;;0.3;90.9834;959.3884;;;;
2023/12/17 03:17:51;;;;;;;12.3;5.6;;;;;;;0.33;90.6123;959.3574;;;;
2023/12/17 03:20:22;;;;;;;7.2;3.4;;;;;;;0.48;89.94238;959.274;;;;
2023/12/17 03:22:47;;;;;;;8.4;3.7;;;;;;;0.39;90.0791;959.2573;;;;
2023/12/17 03:25:17;;;;;;;3.8;3.2;;;;;;;0.25;89.93555;959.178;;;;
2023/12/17 03:27:43;;;;;;;4.1;2.7;;;;;;;0.26;90.19727;959.0664;;;;
2023/12/17 03:30:15;;;;;;;8.8;4.3;;;;;;;0.39;89.83203;959.0836;;;;
2023/12/17 03:32:45;;;;;;;5.2;3;;;;;;;0.25;90.02637;959.1178;;;;
2023/12/17 03:35:15;;;;;;;135;50.3;;;;;;;0.31;90.13965;959.1672;;;;
2023/12/17 03:37:41;;;;;;;37.5;14.4;;;;;;;0.33;90.17773;959.0263;;;;
2023/12/17 03:40:14;;;;;;;4.9;2.9;;;;;;;0.22;90.57813;959.0829;;;;
2023/12/17 03:42:43;;;;;;;4.3;2.3;;;;;;;0.15;91.11914;958.8825;;;;
2023/12/17 03:45:17;;;;;;;3.7;2.5;;;;;;;0.12;91.42578;958.8356;;;;
2023/12/17 03:47:47;;;;;;;2.9;2.4;;;;;;;0.15;91.28711;958.9855;;;;
2023/12/17 03:50:19;;;;;;;3.3;2.5;;;;;;;0.1;91.29883;958.9953;;;;
2023/12/17 03:52:48;;;;;;;6.2;4.1;;;;;;;0.14;91.3623;958.9963;;;;
2023/12/17 03:55:16;;;;;;;3.9;3.2;;;;;;;0.15;91.47559;959.0059;;;;
2023/12/17 03:57:47;;;;;;;3.4;2.2;;;;;;;0.41;90.73047;958.8859;;;;
2023/12/17 04:00:13;;;;;;;5.3;2.3;;;;;;;0.32;90.54297;958.9685;;;;
2023/12/17 04:02:52;;;;;;;4.2;2.3;;;;;;;0.25;90.4834;958.9418;;;;
2023/12/17 04:05:17;;;;;;;4;2.6;;;;;;;0.29;90.18066;958.8428;;;;
2023/12/17 04:07:51;;;;;;;3.9;2.7;;;;;;;0.13;90.9707;958.9416;;;;
2023/12/17 04:10:19;;;;;;;3;2.2;;;;;;;0.28;90.54688;958.8738;;;;
2023/12/17 04:12:51;;;;;;;4.1;2.6;;;;;;;0.29;90.16992;958.838;;;;
2023/12/17 04:15:19;;;;;;;4.3;2.2;;;;;;;0.47;89.24707;958.7227;;;;
2023/12/17 04:17:45;;;;;;;3.7;2;;;;;;;0.53;88.83496;958.7949;;;;
2023/12/17 04:20:10;;;;;;;3.5;2.2;;;;;;;0.34;89.76855;958.7508;;;;
2023/12/17 04:22:42;;;;;;;3.2;1.9;;;;;;;0.19;90.24707;958.7388;;;;
2023/12/17 04:25:15;;;;;;;4.4;2.1;;;;;;;0.16;90.55469;958.7346;;;;
2023/12/17 04:27:45;;;;;;;2.9;2.2;;;;;;;0.43;89.66309;958.6853;;;;
2023/12/17 04:30:13;;;;;;;3.5;1.6;;;;;;;0.5;89.61133;958.6215;;;;
2023/12/17 04:32:40;;;;;;;2.4;2.1;;;;;;;0.41;90.10547;958.7473;;;;
2023/12/17 04:35:06;;;;;;;3.8;2.6;;;;;;;0.42;90.18555;958.7466;;;;
2023/12/17 04:37:30;;;;;;;2.7;2;;;;;;;0.47;89.89648;958.7205;;;;
2023/12/17 04:39:58;;;;;;;3.5;2.1;;;;;;;0.39;90.00098;958.6911;;;;
2023/12/17 04:42:23;;;;;;;4.3;2.1;;;;;;;0.53;89.48145;958.5692;;;;
2023/12/17 04:44:52;;;;;;;6.2;2.7;;;;;;;0.38;89.60938;958.6014;;;;
2023/12/17 04:47:17;;;;;;;4.2;3;;;;;;;0.3;89.80176;958.5109;;;;
2023/12/17 04:49:42;;;;;;;4.5;2.5;;;;;;;0.43;89.76367;958.5662;;;;
2023/12/17 04:52:07;;;;;;;5.4;2.7;;;;;;;0.59;89.01758;958.5295;;;;
2023/12/17 04:54:36;;;;;;;4.3;2.8;;;;;;;0.48;89.19336;958.5881;;;;
2023/12/17 04:57:01;;;;;;;5.5;2.5;;;;;;;0.41;89.12598;958.5964;;;;
2023/12/17 04:59:32;;;;;;;4.2;2.4;;;;;;;0.46;88.85547;958.5891;;;;
2023/12/17 05:01:57;;;;;;;3.7;2.1;;;;;;;0.28;89.68848;958.6325;;;;
2023/12/17 05:04:22;;;;;;;3;1.9;;;;;;;0.2;90.31543;958.6544;;;;
2023/12/17 05:06:48;;;;;;;3.5;2.4;;;;;;;0.25;90.09082;958.5904;;;;
2023/12/17 05:09:19;;;;;;;5.4;4.7;;;;;;;0.23;90.29004;958.6367;;;;
2023/12/17 05:11:44;;;;;;;4.3;2.7;;;;;;;0.34;89.98047;958.6066;;;;
2023/12/17 05:14:15;;;;;;;2.3;1.9;;;;;;;0.36;89.93945;958.6099;;;;
2023/12/17 05:16:39;;;;;;;2.7;1.8;;;;;;;0.47;89.41602;958.5293;;;;
2023/12/17 05:19:05;;;;;;;2.8;1.8;;;;;;;0.4;89.49023;958.5319;;;;
2023/12/17 05:21:36;;;;;;;2.1;1.7;;;;;;;0.34;89.82422;958.5433;;;;
2023/12/17 05:24:05;;;;;;;3.6;1.9;;;;;;;0.34;89.93555;958.5627;;;;
2023/12/17 05:26:38;;;;;;;2.4;1.9;;;;;;;0.44;89.48926;958.5916;;;;
2023/12/17 05:29:08;;;;;;;1.6;1.5;;;;;;;0.5;89.54492;958.4838;;;;
2023/12/17 05:31:43;;;;;;;2.6;1.8;;;;;;;0.49;89.83301;958.498;;;;
2023/12/17 05:34:10;;;;;;;2.9;1.6;;;;;;;0.5;90.03516;958.5164;;;;
2023/12/17 05:36:43;;;;;;;1.6;1.3;;;;;;;0.53;90.08594;958.6016;;;;
2023/12/17 05:39:14;;;;;;;3.7;1.9;;;;;;;0.51;89.80371;958.5193;;;;
2023/12/17 05:41:45;;;;;;;3.2;2.4;;;;;;;0.4;90.0127;958.5792;;;;
2023/12/17 05:44:11;;;;;;;6;3.6;;;;;;;0.35;89.87988;958.6586;;;;
2023/12/17 05:46:36;;;;;;;5.3;3.5;;;;;;;0.31;89.98438;958.6088;;;;
2023/12/17 05:49:03;;;;;;;5.2;4;;;;;;;0.4;89.80273;958.6269;;;;
2023/12/17 05:51:35;;;;;;;4;2.7;;;;;;;0.43;89.62988;958.6409;;;;
2023/12/17 05:54:08;;;;;;;6.7;3.6;;;;;;;0.31;89.60547;958.6251;;;;
2023/12/17 05:56:36;;;;;;;4.7;3.1;;;;;;;0.29;89.64551;958.6379;;;;
2023/12/17 05:59:09;;;;;;;3;2.3;;;;;;;0.33;89.86523;958.6757;;;;
2023/12/17 06:01:40;;;;;;;2.6;2.4;;;;;;;0.39;89.65527;958.5793;;;;
2023/12/17 06:04:11;;;;;;;3.4;2.1;;;;;;;0.41;89.84863;958.5067;;;;
2023/12/17 06:06:36;;;;;;;6.6;3.2;;;;;;;0.4;89.76953;958.5971;;;;
2023/12/17 06:09:05;;;;;;;5.2;3.5;;;;;;;0.39;89.92188;958.6259;;;;
2023/12/17 06:11:29;;;;;;;6;3.8;;;;;;;0.44;89.74512;958.5195;;;;
2023/12/17 06:13:57;;;;;;;7;3.8;;;;;;;0.3;89.86914;958.5861;;;;
2023/12/17 06:16:23;;;;;;;6;3.6;;;;;;;0.43;89.60938;958.562;;;;
2023/12/17 06:18:48;;;;;;;5.3;4;;;;;;;0.45;89.75684;958.5591;;;;
2023/12/17 06:21:13;;;;;;;5.2;4.3;;;;;;;0.59;89.0625;958.5039;;;;
2023/12/17 06:23:44;;;;;;;6.3;4.6;;;;;;;0.46;89.14648;958.5493;;;;
2023/12/17 06:26:09;;;;;;;5.6;3.2;;;;;;;0.29;89.81348;958.5952;;;;
2023/12/17 06:28:38;;;;;;;5.4;3.9;;;;;;;0.41;89.36816;958.5401;;;;
2023/12/17 06:31:11;;;;;;;5.8;5;;;;;;;0.44;89.08691;958.4844;;;;
2023/12/17 06:33:39;;;;;;;5.1;4;;;;;;;0.42;89.1377;958.5392;;;;
2023/12/17 06:36:09;;;;;;;4.3;3;;;;;;;0.28;89.27637;958.5149;;;;
2023/12/17 06:38:34;;;;;;;4.1;2.7;;;;;;;0.22;89.32715;958.4495;;;;
2023/12/17 06:41:04;;;;;;;3.8;2.9;;;;;;;0.18;89.64551;958.4431;;;;
2023/12/17 06:43:30;;;;;;;3.6;2.5;;;;;;;0.02;90.43457;958.3878;;;;
2023/12/17 06:45:55;;;;;;;3.2;2.6;;;;;;;0.1;90.47461;958.3411;;;;
2023/12/17 06:48:25;;;;;;;3.7;3;;;;;;;0.13;90.625;958.4094;;;;
2023/12/17 06:50:50;;;;;;;3.5;3.1;;;;;;;0.13;90.92578;958.3635;;;;
2023/12/17 06:53:23;;;;;;;4.5;3.6;;;;;;;0.36;90.2832;958.2891;;;;
2023/12/17 06:55:50;;;;;;;4;3.4;;;;;;;0.27;90.44434;958.3756;;;;
2023/12/17 06:58:16;;;;;;;4.6;3.9;;;;;;;0.44;89.93262;958.2864;;;;
2023/12/17 07:00:47;;;;;;;3.3;3;;;;;;;0.43;90.56641;958.2747;;;;
2023/12/17 07:03:12;;;;;;;3.7;3.4;;;;;;;0.62;90.03809;958.2633;;;;
2023/12/17 07:05:45;;;;;;;2.9;2.2;;;;;;;0.6;90.28027;958.2332;;;;
2023/12/17 07:08:10;;;;;;;1.9;1.6;;;;;;;0.76;90.20117;958.2258;;;;
2023/12/17 07:10:42;;;;;;;2.7;2.2;;;;;;;0.73;89.97168;958.2839;;;;
2023/12/17 07:13:11;;;;;;;2.5;2.2;;;;;;;0.82;89.93555;958.302;;;;
2023/12/17 07:15:44;;;;;;;3.7;2.7;;;;;;;0.83;89.22363;958.3148;;;;
2023/12/17 07:18:13;;;;;;;3.7;3.3;;;;;;;0.85;89.66406;958.2761;;;;
2023/12/17 07:20:49;;;;;;;7;5.3;;;;;;;0.84;89.00195;958.4165;;;;
2023/12/17 07:23:13;;;;;;;5.8;4.3;;;;;;;0.85;89.21777;958.4183;;;;
2023/12/17 07:25:43;;;;;;;7.1;6.4;;;;;;;1.02;88.51465;958.4379;;;;
2023/12/17 07:28:10;;;;;;;5.3;4.5;;;;;;;0.93;88.57422;958.363;;;;
2023/12/17 07:30:36;;;;;;;4.4;3.5;;;;;;;1.01;88.25586;958.3785;;;;
2023/12/17 07:33:02;;;;;;;4.7;3.7;;;;;;;0.8;89.00586;958.4114;;;;
2023/12/17 07:35:30;;;;;;;6.3;3.9;;;;;;;0.71;89.52344;958.4197;;;;
2023/12/17 07:37:56;;;;;;;9.6;5.8;;;;;;;0.81;89.19531;958.4398;;;;
2023/12/17 07:40:22;;;;;;;8.6;5;;;;;;;0.87;89.05371;958.491;;;;
2023/12/17 07:42:48;;;;;;;7.8;4.8;;;;;;;0.88;89.13379;958.4373;;;;
2023/12/17 07:45:17;;;;;;;6.5;3.2;;;;;;;0.87;89.5791;958.502;;;;
2023/12/17 07:47:44;;;;;;;6.9;3.3;;;;;;;0.9;89.64063;958.4846;;;;
2023/12/17 07:50:15;;;;;;;7.4;5;;;;;;;1.1;88.28613;958.5436;;;;
2023/12/17 07:52:39;;;;;;;7.9;5.3;;;;;;;1.11;88.10938;958.5428;;;;
2023/12/17 07:55:08;;;;;;;8.6;5.6;;;;;;;0.96;88.45898;958.6058;;;;
2023/12/17 07:57:40;;;;;;;7.5;5.7;;;;;;;0.92;88.67285;958.5865;;;;
2023/12/17 08:00:12;;;;;;;7.9;5.2;;;;;;;0.95;88.22266;958.5372;;;;
2023/12/17 08:02:45;;;;;;;6;4.6;;;;;;;0.88;88.62109;958.6831;;;;
2023/12/17 08:05:14;;;;;;;7.8;5.7;;;;;;;0.88;88.6875;958.6989;;;;
2023/12/17 08:07:39;;;;;;;11.4;7.3;;;;;;;0.86;89.18652;958.682;;;;
2023/12/17 08:10:08;;;;;;;12.8;8.4;;;;;;;1.22;89.77441;958.7369;;;;
2023/12/17 08:12:32;;;;;;;15.5;10.1;;;;;;;1.77;88.76367;958.6877;;;;
2023/12/17 08:14:59;;;;;;;17.5;10.7;;;;;;;2.55;86.15625;958.6636;;;;
2023/12/17 08:17:24;;;;;;;15.3;8.5;;;;;;;3.2;83.27051;958.5574;;;;
2023/12/17 08:19:54;;;;;;;10.3;6.9;;;;;;;3.81;80.91602;958.6476;;;;
2023/12/17 08:22:23;;;;;;;11;6.2;;;;;;;4.29;78.83691;958.6028;;;;
2023/12/17 08:24:48;;;;;;;11.8;6.6;;;;;;;4.71;77.26953;958.6014;;;;
2023/12/17 08:27:14;;;;;;;15.9;8;;;;;;;4.97;74.97266;958.497;;;;
2023/12/17 08:29:39;;;;;;;9.8;6.5;;;;;;;5.29;74.70117;958.486;;;;
2023/12/17 08:32:06;;;;;;;11.8;6.2;;;;;;;5.58;73.3418;958.535;;;;
2023/12/17 08:34:31;;;;;;;9.8;5.9;;;;;;;5.91;72.14453;958.4891;;;;
2023/12/17 08:37:00;;;;;;;11.6;7;;;;;;;6.23;71.49707;958.4714;;;;
2023/12/17 08:39:25;;;;;;;10.3;6.4;;;;;;;6.56;68.0791;958.5081;;;;
2023/12/17 08:41:53;;;;;;;4;2.9;;;;;;;6.69;68.16699;958.5062;;;;
2023/12/17 08:44:22;;;;;;;5;3.4;;;;;;;6.53;68.3916;958.4191;;;;
2023/12/17 08:46:43;;;;;;;4.3;3;;;;;;;6.71;69.24707;958.4822;;;;
2023/12/17 08:49:11;;;;;;;32.3;18;;;;;;;7.04;67.26074;958.4891;;;;
2023/12/17 08:51:37;;;;;;;23;13.7;;;;;;;7.12;67.0127;958.4285;;;;
2023/12/17 08:54:02;;;;;;;30.8;17.9;;;;;;;7.2;66.03906;958.412;;;;
2023/12/17 08:56:27;;;;;;;65.9;38.4;;;;;;;7.38;66.24805;958.3875;;;;
2023/12/17 08:58:53;;;;;;;31.3;18.9;;;;;;;7.6;64.35449;958.3423;;;;
2023/12/17 09:01:23;;;;;;;67.3;36.3;;;;;;;7.68;64.0498;958.3602;;;;
2023/12/17 09:03:48;;;;;;;16.7;10.5;;;;;;;7.92;64.69824;958.2736;;;;
2023/12/17 09:06:14;;;;;;;8.3;5.7;;;;;;;8.11;64.80664;958.1778;;;;
2023/12/17 09:08:38;;;;;;;7.6;5.3;;;;;;;8.43;63.28613;958.1481;;;;
2023/12/17 09:11:07;;;;;;;29.1;16.6;;;;;;;8.55;62.64453;958.2183;;;;
2023/12/17 09:13:32;;;;;;;32.8;17.7;;;;;;;8.69;60.57324;958.253;;;;
2023/12/17 09:16:02;;;;;;;8.6;5.7;;;;;;;8.89;62.30664;958.223;;;;
2023/12/17 09:18:28;;;;;;;7.9;5.1;;;;;;;9;60.98047;958.2283;;;;
2023/12/17 09:20:55;;;;;;;9.4;6.1;;;;;;;9.18;61.46191;958.1603;;;;
2023/12/17 09:23:20;;;;;;;15.2;10.8;;;;;;;9.51;61.14453;958.1172;;;;
2023/12/17 09:25:46;;;;;;;44.5;25;;;;;;;9.64;60.55859;958.1097;;;;
2023/12/17 09:28:17;;;;;;;13.9;8.4;;;;;;;9.72;59.90918;958.1283;;;;
2023/12/17 09:30:47;;;;;;;10.7;7;;;;;;;9.97;58.86133;958.0528;;;;
2023/12/17 09:33:13;;;;;;;9;6.8;;;;;;;10.05;59.25879;958.1179;;;;
2023/12/17 09:35:39;;;;;;;5.9;4.4;;;;;;;10.25;59.33301;958.1297;;;;
2023/12/17 09:38:05;;;;;;;7.1;4.9;;;;;;;10.54;58.27637;958.0545;;;;
2023/12/17 09:40:31;;;;;;;8.1;5.5;;;;;;;10.59;58.49902;958.1019;;;;
2023/12/17 09:42:57;;;;;;;9.2;5.6;;;;;;;10.56;58.06152;958.0654;;;;
2023/12/17 09:45:22;;;;;;;8.8;5.6;;;;;;;10.34;57.2793;958.0658;;;;
2023/12/17 09:47:51;;;;;;;6.5;4.5;;;;;;;9.94;58.82227;958.0681;;;;
2023/12/17 09:50:17;;;;;;;8.6;4.9;;;;;;;10.29;58.89258;958.0589;;;;
2023/12/17 09:52:54;;;;;;;11.2;6.9;;;;;;;10.09;59.15039;958.0044;;;;
2023/12/17 09:55:21;;;;;;;5.4;3.7;;;;;;;10.3;58.66602;957.9906;;;;
2023/12/17 09:57:49;;;;;;;10.2;5.9;;;;;;;10.36;59.03809;957.9447;;;;
2023/12/17 10:00:18;;;;;;;5.5;3.9;;;;;;;10.09;58.86523;957.854;;;;
2023/12/17 10:02:43;;;;;;;6.6;5;;;;;;;9.83;60.02539;957.87;;;;
2023/12/17 10:05:18;;;;;;;15.1;9.7;;;;;;;9.64;60.47852;957.8439;;;;
2023/12/17 10:07:43;;;;;;;10.5;6;;;;;;;9.58;61.58691;957.8345;;;;
2023/12/17 10:10:17;;;;;;;8;5.7;;;;;;;9.25;61.84668;957.7653;;;;
2023/12/17 10:12:42;;;;;;;11.1;9;;;;;;;9.03;61.97559;957.7701;;;;
2023/12/17 10:15:17;;;;;;;7.1;5.1;;;;;;;8.83;63.37988;957.7074;;;;
2023/12/17 10:17:47;;;;;;;8.1;6.1;;;;;;;8.57;63.91016;957.6983;;;;
2023/12/17 10:20:15;;;;;;;12.6;9;;;;;;;8.57;63.14844;957.645;;;;
2023/12/17 10:22:41;;;;;;;6;4.7;;;;;;;8.5;65.00195;957.653;;;;
2023/12/17 10:25:06;;;;;;;6.3;4.5;;;;;;;8.65;64.93262;957.6713;;;;
2023/12/17 10:27:38;;;;;;;6;4.6;;;;;;;8.52;64.82227;957.6594;;;;
2023/12/17 10:30:01;;;;;;;6.4;4.2;;;;;;;8.42;65.47754;957.611;;;;
2023/12/17 10:32:28;;;;;;;5.1;3.9;;;;;;;8.35;65.73926;957.5983;;;;
2023/12/17 10:34:53;;;;;;;5.1;3.6;;;;;;;8.27;66.60156;957.4854;;;;
2023/12/17 10:37:21;;;;;;;29.7;16.7;;;;;;;8.38;65.76758;957.5397;;;;
2023/12/17 10:39:50;;;;;;;16.8;10;;;;;;;8.36;66.42285;957.5168;;;;
2023/12/17 10:42:17;;;;;;;8.9;5.5;;;;;;;8.17;67.26758;957.4556;;;;
2023/12/17 10:44:42;;;;;;;19.4;10.2;;;;;;;8.15;67.41211;957.4444;;;;
2023/12/17 10:47:09;;;;;;;7.3;4.9;;;;;;;8.17;67.3125;957.3477;;;;
2023/12/17 10:49:34;;;;;;;6.8;3.8;;;;;;;8.08;67.83203;957.3448;;;;
2023/12/17 10:51:59;;;;;;;7.1;4.2;;;;;;;8.12;67.97461;957.3275;;;;
2023/12/17 10:54:30;;;;;;;5.4;3.5;;;;;;;8.19;68.08789;957.3383;;;;
2023/12/17 10:56:53;;;;;;;4.6;2.8;;;;;;;8.18;67.45215;957.311;;;;
2023/12/17 10:59:21;;;;;;;3.3;2.1;;;;;;;8.15;67.77539;957.2704;;;;
2023/12/17 11:01:46;;;;;;;3.2;2;;;;;;;8.18;67.81348;957.3028;;;;
2023/12/17 11:04:15;;;;;;;7;4.5;;;;;;;8.2;67.87402;957.2039;;;;
2023/12/17 11:06:40;;;;;;;5.3;3.4;;;;;;;8.15;68.89941;957.2174;;;;
2023/12/17 11:09:08;;;;;;;4.3;2.7;;;;;;;8.01;69.86523;957.2889;;;;
2023/12/17 11:11:34;;;;;;;15.2;7.9;;;;;;;8.12;69.74707;957.2785;;;;
2023/12/17 11:14:02;;;;;;;14.5;7.8;;;;;;;7.92;71.07617;957.1827;;;;
2023/12/17 11:16:29;;;;;;;3.4;2.8;;;;;;;7.82;71.30957;957.2395;;;;
2023/12/17 11:18:52;;;;;;;7.3;3.7;;;;;;;7.87;71.58008;957.243;;;;
2023/12/17 11:21:18;;;;;;;55.6;20.7;;;;;;;8.06;70.29297;957.2003;;;;
2023/12/17 11:23:45;;;;;;;141.2;50.2;;;;;;;8.08;70.85352;957.2012;;;;
2023/12/17 11:26:10;;;;;;;32.9;18.8;;;;;;;8.11;70.2666;957.1603;;;;
2023/12/17 11:28:35;;;;;;;4.7;3.4;;;;;;;8.16;71.1377;957.1945;;;;
2023/12/17 11:31:02;;;;;;;4.3;2.4;;;;;;;8.21;71.28223;957.1764;;;;
2023/12/17 11:33:27;;;;;;;1.4;1.2;;;;;;;8.27;71.73535;957.1758;;;;
2023/12/17 11:35:56;;;;;;;7.1;4.5;;;;;;;8.32;70.63086;957.1425;;;;
2023/12/17 11:38:21;;;;;;;5.6;3.2;;;;;;;8.16;71.28711;957.1323;;;;
2023/12/17 11:40:51;;;;;;;2.6;1.6;;;;;;;8.1;71.52637;957.1807;;;;
2023/12/17 11:43:16;;;;;;;5.4;3.1;;;;;;;8.07;71.71387;957.1183;;;;
2023/12/17 11:45:45;;;;;;;11.2;7.4;;;;;;;7.97;72.40039;957.1088;;;;
2023/12/17 11:48:06;;;;;;;43.5;20.1;;;;;;;8.08;71.29492;957.0845;;;;
2023/12/17 11:50:35;;;;;;;20.9;9.5;;;;;;;7.83;72.13965;957.0552;;;;
2023/12/17 11:53:00;;;;;;;10.5;6.1;;;;;;;7.73;72.30273;956.9561;;;;
2023/12/17 11:55:27;;;;;;;6.9;4.8;;;;;;;7.62;72.5127;957.0627;;;;
2023/12/17 11:57:56;;;;;;;8.6;4.7;;;;;;;7.49;73;957.0359;;;;
2023/12/17 12:00:23;;;;;;;6.3;4.1;;;;;;;7.36;73.66992;957.0369;;;;
2023/12/17 12:02:48;;;;;;;5.1;3.6;;;;;;;7.33;73.99414;957.0006;;;;
2023/12/17 12:05:15;;;;;;;8.2;4.4;;;;;;;7.44;73.84277;956.9883;;;;
2023/12/17 12:07:40;;;;;;;13.2;6.7;;;;;;;7.57;73.14063;956.9561;;;;
2023/12/17 12:10:05;;;;;;;6.9;4.4;;;;;;;7.51;73.9668;956.9514;;;;
2023/12/17 12:12:36;;;;;;;8.5;4.2;;;;;;;7.45;74.61523;956.9191;;;;
2023/12/17 12:15:06;;;;;;;5.6;3.4;;;;;;;7.4;74.0957;956.863;;;;
2023/12/17 12:17:31;;;;;;;4;2.9;;;;;;;7.32;74.26465;956.8036;;;;
2023/12/17 12:20:01;;;;;;;3.6;3;;;;;;;7.49;74.50781;956.7759;;;;
2023/12/17 12:22:26;;;;;;;7.1;3.3;;;;;;;7.71;74.30762;956.6967;;;;
2023/12/17 12:24:53;;;;;;;2.6;2.3;;;;;;;7.61;73.74609;956.6584;;;;
2023/12/17 12:27:18;;;;;;;3.9;2.7;;;;;;;7.73;73.03027;956.6608;;;;
2023/12/17 12:29:47;;;;;;;4.3;3.2;;;;;;;7.57;74.02148;956.6505;;;;
2023/12/17 12:32:14;;;;;;;5;3.1;;;;;;;7.45;74.55859;956.6531;;;;
2023/12/17 12:34:45;;;;;;;5.1;3.3;;;;;;;7.59;73.79004;956.5718;;;;
2023/12/17 12:37:10;;;;;;;4.6;3;;;;;;;7.44;74.27344;956.5769;;;;
2023/12/17 12:39:35;;;;;;;4.7;3;;;;;;;7.34;74.66406;956.5302;;;;
2023/12/17 12:42:02;;;;;;;5.1;3.2;;;;;;;7.41;74.72266;956.4383;;;;
2023/12/17 12:44:27;;;;;;;3.3;2.4;;;;;;;7.33;74.72949;956.4922;;;;
2023/12/17 12:46:52;;;;;;;3.6;2.4;;;;;;;7.28;74.75391;956.4288;;;;
2023/12/17 12:49:20;;;;;;;2.8;2.2;;;;;;;7.42;74.88086;956.3742;;;;
2023/12/17 12:51:46;;;;;;;2.9;1.9;;;;;;;7.44;75.48535;956.2383;;;;
2023/12/17 12:54:14;;;;;;;4.3;2.3;;;;;;;7.46;75.63672;956.2842;;;;
2023/12/17 12:56:39;;;;;;;2.5;2;;;;;;;7.52;75.63574;956.2762;;;;
2023/12/17 12:59:08;;;;;;;4.9;2.9;;;;;;;7.62;74.45215;956.236;;;;
2023/12/17 13:01:36;;;;;;;4.1;2.7;;;;;;;7.57;73.60352;956.2464;;;;
2023/12/17 13:04:03;;;;;;;6.8;3.7;;;;;;;7.59;73.57324;956.2442;;;;
2023/12/17 13:06:26;;;;;;;8.6;3.9;;;;;;;7.55;73.91797;956.2241;;;;
2023/12/17 13:08:51;;;;;;;6.7;3.5;;;;;;;7.45;74.42285;956.1478;;;;
2023/12/17 13:11:18;;;;;;;5.6;3.4;;;;;;;7.36;75.18848;956.0541;;;;
2023/12/17 13:13:43;;;;;;;7.7;3.7;;;;;;;7.44;75.94043;956.0014;;;;
2023/12/17 13:16:12;;;;;;;4.8;3.5;;;;;;;7.47;76.0918;955.969;;;;
2023/12/17 13:18:37;;;;;;;6.1;3.7;;;;;;;7.39;75.46582;955.9581;;;;
2023/12/17 13:21:05;;;;;;;7.6;4.1;;;;;;;7.55;74.50781;955.8244;;;;
2023/12/17 13:23:31;;;;;;;7.9;4.3;;;;;;;7.33;74.86523;955.9042;;;;
2023/12/17 13:25:57;;;;;;;6.5;4.4;;;;;;;7.42;75.6875;955.8482;;;;
2023/12/17 13:28:22;;;;;;;8.7;4.5;;;;;;;7.42;75.76563;955.8996;;;;
2023/12/17 13:30:51;;;;;;;8.1;4.6;;;;;;;7.23;76.17383;955.8748;;;;
2023/12/17 13:33:20;;;;;;;8.3;4.5;;;;;;;7.22;76.30762;955.9005;;;;
2023/12/17 13:35:46;;;;;;;6.4;4.2;;;;;;;6.98;76.93262;955.9026;;;;
2023/12/17 13:38:11;;;;;;;4.3;2.9;;;;;;;6.99;76.6416;955.8969;;;;
2023/12/17 13:40:49;;;;;;;4.4;2.7;;;;;;;7;76.92578;955.9537;;;;
2023/12/17 13:43:11;;;;;;;5.5;3.9;;;;;;;6.92;77.15918;955.9851;;;;
2023/12/17 13:45:37;;;;;;;5.8;4;;;;;;;6.96;77.08789;955.9412;;;;
2023/12/17 13:48:02;;;;;;;5;3.6;;;;;;;6.92;77.02441;955.8761;;;;
2023/12/17 13:50:33;;;;;;;4.3;3.4;;;;;;;6.85;77.37402;955.8715;;;;
2023/12/17 13:52:58;;;;;;;6.5;3.8;;;;;;;6.85;77.27246;955.8738;;;;
2023/12/17 13:55:30;;;;;;;6.8;3.6;;;;;;;6.71;76.76074;955.7903;;;;
2023/12/17 13:57:56;;;;;;;5.5;3.9;;;;;;;6.55;77.27539;955.8008;;;;
2023/12/17 14:00:24;;;;;;;8.4;5.1;;;;;;;6.61;77.09375;955.6789;;;;
2023/12/17 14:02:53;;;;;;;11.4;6.2;;;;;;;6.41;77.76953;955.6992;;;;
2023/12/17 14:05:19;;;;;;;11.6;7.1;;;;;;;6.33;78.0166;955.7493;;;;
2023/12/17 14:07:50;;;;;;;13.1;7.8;;;;;;;6.2;78.43262;955.7017;;;;
2023/12/17 14:10:20;;;;;;;13.1;8.2;;;;;;;6.18;78.79102;955.7275;;;;
2023/12/17 14:12:50;;;;;;;14.5;8.3;;;;;;;5.94;79.64941;955.7456;;;;
2023/12/17 14:15:15;;;;;;;16.7;9.9;;;;;;;5.87;79.45703;955.7186;;;;
2023/12/17 14:17:46;;;;;;;16;9.7;;;;;;;5.87;79.53613;955.7527;;;;
2023/12/17 14:20:17;;;;;;;16.7;10;;;;;;;5.77;80.04883;955.7524;;;;
2023/12/17 14:22:41;;;;;;;13.7;9.4;;;;;;;5.75;79.89648;955.6157;;;;
2023/12/17 14:25:14;;;;;;;19.4;11.2;;;;;;;5.61;80.62793;955.6539;;;;
2023/12/17 14:27:44;;;;;;;16.6;9.9;;;;;;;5.61;80.99805;955.7589;;;;
2023/12/17 14:30:08;;;;;;;15;9;;;;;;;5.48;81.91309;955.7619;;;;
2023/12/17 14:32:37;;;;;;;13.7;8.4;;;;;;;5.34;82.8418;955.7905;;;;
2023/12/17 14:35:09;;;;;;;26;14.4;;;;;;;5.49;82.58984;955.7416;;;;
2023/12/17 14:37:34;;;;;;;22.1;13.1;;;;;;;5.39;83.12305;955.7608;;;;
2023/12/17 14:39:59;;;;;;;17.8;10.6;;;;;;;5.29;83.25098;955.7594;;;;